createdAt,value
2019-03-31T00:00:15.525Z,100028.94
2019-03-31T00:02:44.390Z,100029.73
2019-03-31T00:05:13.236Z,100029.37
2019-03-31T00:07:42.195Z,100027.70
2019-03-31T00:10:11.015Z,100034.27
2019-03-31T00:12:39.932Z,100030.08
2019-03-31T00:15:08.896Z,100016.77
2019-03-31T00:17:37.743Z,100018.09
2019-03-31T00:20:06.626Z,100018.06
2019-03-31T00:22:35.534Z,100012.50
2019-03-31T00:25:05.665Z,100014.62
2019-03-31T00:27:34.511Z,100009.53
2019-03-31T00:30:03.455Z,100004.16
2019-03-31T00:32:32.314Z,99998.59
2019-03-31T00:35:01.404Z,99997.74
2019-03-31T00:37:30.245Z,99991.16
2019-03-31T00:39:59.084Z,99993.36
2019-03-31T00:42:27.919Z,99987.00
2019-03-31T00:44:56.766Z,99975.23
2019-03-31T00:47:25.621Z,99974.81
2019-03-31T00:49:54.451Z,99976.42
2019-03-31T00:52:23.430Z,99976.12
2019-03-31T00:54:52.342Z,99966.37
2019-03-31T00:57:21.171Z,99967.98
2019-03-31T00:59:49.999Z,99961.20
2019-03-31T01:02:20.505Z,99956.14
2019-03-31T01:04:49.325Z,99949.55
2019-03-31T01:07:18.287Z,99952.54
2019-03-31T01:09:47.253Z,99949.31
2019-03-31T01:12:16.391Z,99949.19
2019-03-31T01:14:45.250Z,99946.59
2019-03-31T01:17:14.863Z,99936.09
2019-03-31T01:19:43.703Z,99931.73
2019-03-31T01:22:12.542Z,99927.27
2019-03-31T01:24:41.382Z,99927.97
2019-03-31T01:27:10.563Z,99932.66
2019-03-31T01:29:39.400Z,99932.02
2019-03-31T01:32:08.236Z,99928.48
2019-03-31T01:34:37.069Z,99936.27
2019-03-31T01:37:06.315Z,99929.95
2019-03-31T01:39:35.470Z,99927.36
2019-03-31T01:42:04.313Z,99924.29
2019-03-31T01:44:33.131Z,99937.84
2019-03-31T01:47:01.979Z,99946.70
2019-03-31T01:49:30.854Z,99935.55
2019-03-31T01:51:59.761Z,99926.16
2019-03-31T01:54:28.611Z,99928.72
2019-03-31T01:56:57.391Z,99951.70
2019-03-31T01:59:26.240Z,99954.90
2019-03-31T02:02:04.101Z,99929.89
2019-03-31T02:04:25.744Z,99920.83
2019-03-31T02:06:54.532Z,99941.16
2019-03-31T02:09:23.380Z,99947.96
2019-03-31T02:11:52.174Z,99940.72
2019-03-31T02:14:21.000Z,99925.61
2019-03-31T02:16:49.873Z,99931.84
2019-03-31T02:19:18.705Z,99937.59
2019-03-31T02:21:47.487Z,99933.09
2019-03-31T02:24:16.311Z,99924.55
2019-03-31T02:26:45.153Z,99923.95
2019-03-31T02:29:14.005Z,99933.11
2019-03-31T02:31:42.853Z,99923.72
2019-03-31T02:34:11.707Z,99919.59
2019-03-31T02:36:40.557Z,99922.48
2019-03-31T02:39:09.614Z,99916.03
2019-03-31T02:41:38.390Z,99923.96
2019-03-31T02:44:07.147Z,99916.39
2019-03-31T02:46:35.987Z,99914.42
2019-03-31T02:49:04.864Z,99913.97
2019-03-31T02:51:33.701Z,99912.09
2019-03-31T02:54:02.538Z,99918.91
2019-03-31T02:56:32.669Z,99918.38
2019-03-31T02:59:02.252Z,99911.58
2019-03-31T03:01:32.888Z,99922.64
2019-03-31T03:04:07.717Z,99922.73
2019-03-31T03:06:35.920Z,99926.45
2019-03-31T03:09:06.655Z,99926.45
2019-03-31T03:11:35.820Z,99932.17
2019-03-31T03:14:06.061Z,99926.98
2019-03-31T03:16:35.178Z,99930.59
2019-03-31T03:19:04.013Z,99922.95
2019-03-31T03:21:32.846Z,99925.11
2019-03-31T03:24:01.708Z,99924.70
2019-03-31T03:26:30.559Z,99921.97
2019-03-31T03:28:59.382Z,99924.92
2019-03-31T03:31:28.201Z,99927.16
2019-03-31T03:33:57.048Z,99921.33
2019-03-31T03:36:25.884Z,99921.56
2019-03-31T03:38:54.722Z,99924.30
2019-03-31T03:41:23.577Z,99922.27
2019-03-31T03:43:59.673Z,99917.61
2019-03-31T03:46:22.982Z,99923.56
2019-03-31T03:48:51.887Z,99921.65
2019-03-31T03:51:20.764Z,99921.19
2019-03-31T03:53:49.599Z,99915.09
2019-03-31T03:56:18.452Z,99923.33
2019-03-31T03:58:47.208Z,99927.22
2019-03-31T04:01:17.606Z,99922.48
2019-03-31T04:03:46.447Z,99918.97
2019-03-31T04:06:15.282Z,99918.89
2019-03-31T04:08:44.119Z,99916.78
2019-03-31T04:11:20.602Z,99914.47
2019-03-31T04:13:46.325Z,99918.43
2019-03-31T04:16:15.126Z,99916.17
2019-03-31T04:18:44.075Z,99917.75
2019-03-31T04:21:13.062Z,99928.06
2019-03-31T04:23:41.979Z,99924.03
2019-03-31T04:26:10.786Z,99918.27
2019-03-31T04:28:39.575Z,99918.70
2019-03-31T04:31:08.364Z,99921.63
2019-03-31T04:33:50.511Z,99920.05
2019-03-31T04:36:07.662Z,99920.50
2019-03-31T04:38:36.520Z,99927.37
2019-03-31T04:41:05.471Z,99925.05
2019-03-31T04:43:34.332Z,99921.44
2019-03-31T04:46:03.174Z,99923.64
2019-03-31T04:48:32.010Z,99919.55
2019-03-31T04:51:00.850Z,99916.98
2019-03-31T04:53:29.792Z,99915.77
2019-03-31T04:55:58.699Z,99914.80
2019-03-31T04:58:27.464Z,99919.58
2019-03-31T05:00:56.374Z,99922.61
2019-03-31T05:03:25.208Z,99924.13
2019-03-31T05:05:54.069Z,99920.54
2019-03-31T05:08:22.827Z,99931.42
2019-03-31T05:10:51.759Z,99922.92
2019-03-31T05:13:25.636Z,99928.91
2019-03-31T05:15:54.099Z,99924.23
2019-03-31T05:18:22.942Z,99932.66
2019-03-31T05:20:51.787Z,99926.40
2019-03-31T05:23:20.617Z,99927.58
2019-03-31T05:25:49.530Z,99922.39
2019-03-31T05:28:18.266Z,99921.77
2019-03-31T05:30:47.182Z,99928.92
2019-03-31T05:33:16.191Z,99924.63
2019-03-31T05:35:45.619Z,99931.58
2019-03-31T05:38:14.450Z,99931.52
2019-03-31T05:40:43.217Z,99927.78
2019-03-31T05:43:12.651Z,99931.06
2019-03-31T05:45:42.130Z,99929.31
2019-03-31T05:48:11.502Z,99932.33
2019-03-31T05:50:40.873Z,99930.58
2019-03-31T05:53:10.209Z,99929.56
2019-03-31T05:55:39.659Z,99925.66
2019-03-31T05:58:09.068Z,99924.89
2019-03-31T06:00:40.682Z,99918.08
2019-03-31T06:03:10.242Z,99915.45
2019-03-31T06:05:39.642Z,99919.70
2019-03-31T06:08:09.083Z,99926.35
2019-03-31T06:10:38.542Z,99927.80
2019-03-31T06:13:08.047Z,99922.96
2019-03-31T06:15:37.525Z,99920.58
2019-03-31T06:18:06.941Z,99913.52
2019-03-31T06:20:36.462Z,99911.59
2019-03-31T06:23:06.065Z,99913.23
2019-03-31T06:25:35.570Z,99910.36
2019-03-31T06:28:05.044Z,99914.92
2019-03-31T06:30:34.560Z,99916.48
2019-03-31T06:33:04.045Z,99912.88
2019-03-31T06:35:33.455Z,99902.50
2019-03-31T06:38:02.876Z,99911.30
2019-03-31T06:40:32.346Z,99902.45
2019-03-31T06:43:01.745Z,99908.47
2019-03-31T06:45:31.194Z,99902.58
2019-03-31T06:48:00.698Z,99904.98
2019-03-31T06:50:30.144Z,99899.49
2019-03-31T06:52:59.590Z,99899.64
2019-03-31T06:55:29.052Z,99898.11
2019-03-31T06:57:58.468Z,99895.79
2019-03-31T07:00:27.975Z,99896.94
2019-03-31T07:02:57.472Z,99890.07
2019-03-31T07:05:26.999Z,99887.55
2019-03-31T07:07:56.458Z,99890.52
2019-03-31T07:10:25.910Z,99888.16
2019-03-31T07:12:55.398Z,99884.22
2019-03-31T07:15:24.906Z,99883.03
2019-03-31T07:17:54.333Z,99879.23
2019-03-31T07:20:23.788Z,99884.45
2019-03-31T07:22:53.298Z,99873.48
2019-03-31T07:25:22.991Z,99875.47
2019-03-31T07:27:52.476Z,99870.85
2019-03-31T07:30:22.471Z,99877.99
2019-03-31T07:32:51.978Z,99875.73
2019-03-31T07:35:21.572Z,99871.81
2019-03-31T07:37:51.025Z,99872.11
2019-03-31T07:40:22.103Z,99874.17
2019-03-31T07:42:51.603Z,99881.77
2019-03-31T07:45:21.190Z,99877.73
2019-03-31T07:47:51.067Z,99884.48
2019-03-31T07:50:20.980Z,99875.19
2019-03-31T07:52:50.444Z,99874.09
2019-03-31T07:55:20.198Z,99862.83
2019-03-31T07:57:49.659Z,99870.71
2019-03-31T08:00:21.702Z,99863.86
2019-03-31T08:02:51.201Z,99861.50
2019-03-31T08:05:32.394Z,99863.09
2019-03-31T08:07:51.855Z,99853.38
2019-03-31T08:10:21.605Z,99854.45
2019-03-31T08:12:51.312Z,99853.90
2019-03-31T08:15:20.831Z,99846.40
2019-03-31T08:17:50.414Z,99843.05
2019-03-31T08:20:20.266Z,99839.12
2019-03-31T08:22:49.728Z,99835.02
2019-03-31T08:25:19.265Z,99837.02
2019-03-31T08:27:48.748Z,99834.43
2019-03-31T08:30:19.990Z,99831.83
2019-03-31T08:32:49.433Z,99827.25
2019-03-31T08:35:20.734Z,99827.52
2019-03-31T08:37:50.240Z,99819.84
2019-03-31T08:40:19.852Z,99828.53
2019-03-31T08:42:49.310Z,99820.66
2019-03-31T08:45:18.802Z,99811.91
2019-03-31T08:47:48.259Z,99809.44
2019-03-31T08:50:17.998Z,99806.59
2019-03-31T08:52:47.474Z,99805.66
2019-03-31T08:55:16.927Z,99804.05
2019-03-31T08:57:46.365Z,99787.64
2019-03-31T09:00:17.780Z,99785.36
2019-03-31T09:02:47.212Z,99786.33
2019-03-31T09:05:16.681Z,99782.28
2019-03-31T09:07:46.116Z,99787.23
2019-03-31T09:10:15.831Z,99783.94
2019-03-31T09:12:48.331Z,99783.42
2019-03-31T09:15:16.506Z,99777.61
2019-03-31T09:17:45.973Z,99772.84
2019-03-31T09:20:15.989Z,99776.19
2019-03-31T09:22:45.402Z,99769.80
2019-03-31T09:25:14.892Z,99773.02
2019-03-31T09:27:44.477Z,99774.48
2019-03-31T09:30:14.218Z,99769.47
2019-03-31T09:32:43.773Z,99771.97
2019-03-31T09:35:13.267Z,99766.28
2019-03-31T09:37:42.743Z,99757.81
2019-03-31T09:40:12.517Z,99753.34
2019-03-31T09:42:41.961Z,99750.13
2019-03-31T09:45:11.966Z,99746.11
2019-03-31T09:47:41.450Z,99743.34
2019-03-31T09:50:16.836Z,99730.48
2019-03-31T09:52:44.231Z,99734.87
2019-03-31T09:55:13.914Z,99731.06
2019-03-31T09:57:43.424Z,99718.50
2019-03-31T10:00:18.363Z,99723.93
2019-03-31T10:02:47.852Z,99723.93
2019-03-31T10:05:17.357Z,99711.05
2019-03-31T10:07:46.793Z,99703.94
2019-03-31T10:10:22.002Z,99703.94
2019-03-31T10:12:51.557Z,99699.70
2019-03-31T10:15:21.009Z,99697.20
2019-03-31T10:17:50.479Z,99697.20
2019-03-31T10:20:20.076Z,99698.30
2019-03-31T10:22:49.527Z,99690.06
2019-03-31T10:25:18.982Z,99679.20
2019-03-31T10:27:48.435Z,99679.20
2019-03-31T10:30:33.091Z,99682.20
2019-03-31T10:33:02.665Z,99682.20
2019-03-31T10:35:32.409Z,99674.95
2019-03-31T10:38:02.529Z,99674.95
2019-03-31T10:40:32.196Z,99674.35
2019-03-31T10:43:01.683Z,99660.05
2019-03-31T10:45:31.188Z,99660.05
2019-03-31T10:48:00.628Z,99660.41
2019-03-31T10:50:30.047Z,99651.73
2019-03-31T10:52:59.506Z,99651.73
2019-03-31T10:55:29.107Z,99646.13
2019-03-31T10:57:58.544Z,99647.38
2019-03-31T11:00:38.274Z,99643.19
2019-03-31T11:03:08.620Z,99639.23
2019-03-31T11:05:38.201Z,99632.98
2019-03-31T11:08:07.786Z,99631.81
2019-03-31T11:10:37.429Z,99631.81
2019-03-31T11:13:07.225Z,99619.45
2019-03-31T11:15:36.645Z,99619.45
2019-03-31T11:18:06.117Z,99612.27
2019-03-31T11:20:35.583Z,99612.27
2019-03-31T11:25:57.984Z,99593.33
2019-03-31T11:28:27.487Z,99593.33
2019-03-31T11:30:56.992Z,99581.23
2019-03-31T11:33:26.659Z,99581.23
2019-03-31T11:35:56.164Z,99572.41
2019-03-31T11:38:25.594Z,99574.87
2019-03-31T11:40:55.072Z,99564.38
2019-03-31T11:43:24.206Z,99564.38
2019-03-31T11:45:53.669Z,99559.50
2019-03-31T11:48:23.201Z,99559.50
2019-03-31T11:50:52.308Z,99557.64
2019-03-31T11:53:21.778Z,99546.38
2019-03-31T11:55:51.217Z,99537.20
2019-03-31T11:58:20.354Z,99537.20
2019-03-31T12:00:51.061Z,99525.45
2019-03-31T12:03:20.247Z,99525.45
2019-03-31T12:05:49.633Z,99527.41
2019-03-31T12:08:19.079Z,99520.72
2019-03-31T12:10:48.275Z,99520.72
2019-03-31T12:13:17.682Z,99516.93
2019-03-31T12:15:46.940Z,99513.05
2019-03-31T12:18:16.148Z,99513.22
2019-03-31T12:20:45.376Z,99510.38
2019-03-31T12:23:14.635Z,99506.28
2019-03-31T12:25:45.674Z,99501.05
2019-03-31T12:28:14.854Z,99502.96
2019-03-31T12:30:43.945Z,99490.52
2019-03-31T12:33:13.077Z,99486.08
2019-03-31T12:35:42.200Z,99484.27
2019-03-31T12:38:11.476Z,99475.43
2019-03-31T12:40:43.916Z,99482.95
2019-03-31T12:43:13.148Z,99472.86
2019-03-31T12:45:43.353Z,99472.86
2019-03-31T12:48:12.758Z,99467.97
2019-03-31T12:50:42.236Z,99455.80
2019-03-31T12:53:11.400Z,99455.80
2019-03-31T12:55:40.849Z,99445.27
2019-03-31T12:58:10.398Z,99439.61
2019-03-31T13:00:39.570Z,99432.66
2019-03-31T13:03:09.070Z,99432.66
2019-03-31T13:05:38.556Z,99433.95
2019-03-31T13:08:08.124Z,99428.55
2019-03-31T13:10:37.665Z,99421.48
2019-03-31T13:13:06.809Z,99421.48
2019-03-31T13:15:35.994Z,99417.11
2019-03-31T13:18:05.525Z,99419.48
2019-03-31T13:20:34.873Z,99412.39
2019-03-31T13:23:04.063Z,99404.66
2019-03-31T13:25:33.531Z,99404.66
2019-03-31T13:28:05.492Z,99393.89
2019-03-31T13:30:34.119Z,99393.89
2019-03-31T13:33:03.636Z,99393.00
2019-03-31T13:35:33.128Z,99393.00
2019-03-31T13:38:10.898Z,99389.65
2019-03-31T13:40:33.780Z,99380.58
2019-03-31T13:43:03.061Z,99380.58
2019-03-31T13:45:32.544Z,99369.82
2019-03-31T13:48:02.083Z,99374.69
2019-03-31T13:50:31.645Z,99369.17
2019-03-31T13:53:01.225Z,99369.17
2019-03-31T13:55:30.836Z,99363.92
2019-03-31T13:58:02.669Z,99360.87
2019-03-31T14:00:37.318Z,99361.20
2019-03-31T14:03:06.956Z,99357.04
2019-03-31T14:05:36.056Z,99357.04
2019-03-31T14:08:05.804Z,99355.94
2019-03-31T14:10:38.736Z,99344.00
2019-03-31T14:13:15.548Z,99344.00
2019-03-31T14:15:45.145Z,99339.86
2019-03-31T14:18:17.155Z,99348.88
2019-03-31T14:20:50.027Z,99339.41
2019-03-31T14:23:30.590Z,99333.23
2019-03-31T14:26:00.855Z,99336.81
2019-03-31T14:28:30.826Z,99336.81
2019-03-31T14:31:01.416Z,99334.08
2019-03-31T14:33:31.293Z,99332.70
2019-03-31T14:36:02.607Z,99332.70
2019-03-31T14:38:39.930Z,99327.12
2019-03-31T14:41:06.402Z,99327.12
2019-03-31T14:43:38.790Z,99327.80
2019-03-31T14:46:08.218Z,99323.31
2019-03-31T14:48:37.849Z,99316.30
2019-03-31T14:51:07.338Z,99323.78
2019-03-31T14:53:36.860Z,99326.19
2019-03-31T14:56:06.328Z,99326.19
2019-03-31T14:58:35.736Z,99322.22
2019-03-31T15:01:05.335Z,99322.22
2019-03-31T15:03:34.824Z,99322.60
2019-03-31T15:06:04.318Z,99317.79
2019-03-31T15:08:33.805Z,99316.78
2019-03-31T15:11:03.262Z,99316.78
2019-03-31T15:13:32.815Z,99315.95
2019-03-31T15:16:02.302Z,99317.44
2019-03-31T15:18:31.803Z,99317.44
2019-03-31T15:21:01.271Z,99314.63
2019-03-31T15:23:30.721Z,99314.63
2019-03-31T15:26:00.382Z,99318.02
2019-03-31T15:28:29.889Z,99318.83
2019-03-31T15:30:59.335Z,99317.91
2019-03-31T15:33:28.809Z,99308.64
2019-03-31T15:35:58.241Z,99322.95
2019-03-31T15:38:27.678Z,99322.95
2019-03-31T15:40:57.239Z,99314.70
2019-03-31T15:43:26.647Z,99313.84
2019-03-31T15:45:56.096Z,99310.37
2019-03-31T15:48:25.777Z,99310.61
2019-03-31T15:50:55.798Z,99310.61
2019-03-31T15:53:25.354Z,99310.95
2019-03-31T15:55:54.809Z,99317.02
2019-03-31T15:58:24.396Z,99316.78
2019-03-31T16:00:53.902Z,99320.16
2019-03-31T16:03:23.377Z,99320.16
2019-03-31T16:05:52.869Z,99324.66
2019-03-31T16:08:22.312Z,99323.11
2019-03-31T16:10:51.719Z,99327.69
2019-03-31T16:13:21.183Z,99323.47
2019-03-31T16:15:50.623Z,99327.00
2019-03-31T16:18:20.197Z,99323.20
2019-03-31T16:20:49.764Z,99328.20
2019-03-31T16:23:19.339Z,99321.97
2019-03-31T16:25:50.352Z,99325.41
2019-03-31T16:28:19.779Z,99326.91
2019-03-31T16:30:49.261Z,99326.38
2019-03-31T16:33:18.702Z,99330.98
2019-03-31T16:35:48.253Z,99328.47
2019-03-31T16:38:17.788Z,99338.35
2019-03-31T16:40:47.276Z,99338.16
2019-03-31T16:43:16.740Z,99337.19
2019-03-31T16:45:46.199Z,99337.67
2019-03-31T16:48:15.659Z,99340.80
2019-03-31T16:50:45.161Z,99346.09
2019-03-31T16:53:14.630Z,99345.03
2019-03-31T16:55:44.131Z,99344.87
2019-03-31T16:58:16.383Z,99345.17
2019-03-31T17:00:45.930Z,99347.86
2019-03-31T17:03:18.242Z,99348.12
2019-03-31T17:05:46.747Z,99354.23
2019-03-31T17:08:16.193Z,99355.11
2019-03-31T17:10:45.677Z,99362.53
2019-03-31T17:13:15.290Z,99357.58
2019-03-31T17:15:44.965Z,99364.23
2019-03-31T17:18:14.515Z,99366.95
2019-03-31T17:20:44.181Z,99371.39
2019-03-31T17:23:13.682Z,99372.31
2019-03-31T17:25:43.200Z,99371.67
2019-03-31T17:28:12.636Z,99378.89
2019-03-31T17:30:42.204Z,99379.63
2019-03-31T17:33:11.683Z,99382.69
2019-03-31T17:35:41.245Z,99384.86
2019-03-31T17:38:11.003Z,99386.44
2019-03-31T17:40:40.472Z,99385.48
2019-03-31T17:43:16.206Z,99389.58
2019-03-31T17:45:41.376Z,99389.24
2019-03-31T17:48:10.841Z,99391.63
2019-03-31T17:50:40.392Z,99395.37
2019-03-31T17:53:09.892Z,99406.30
2019-03-31T17:55:39.481Z,99404.48
2019-03-31T17:58:08.989Z,99409.77
2019-03-31T18:00:38.465Z,99399.30
2019-03-31T18:03:07.965Z,99409.48
2019-03-31T18:05:37.469Z,99417.48
2019-03-31T18:08:07.066Z,99423.69
2019-03-31T18:10:36.554Z,99418.17
2019-03-31T18:13:06.040Z,99424.47
2019-03-31T18:15:35.530Z,99426.86
2019-03-31T18:18:05.034Z,99429.02
2019-03-31T18:20:34.491Z,99430.86
2019-03-31T18:23:04.097Z,99436.52
2019-03-31T18:25:33.542Z,99442.16
2019-03-31T18:28:03.051Z,99445.03
2019-03-31T18:30:32.565Z,99448.75
2019-03-31T18:33:02.059Z,99443.05
2019-03-31T18:35:31.638Z,99442.20
2019-03-31T18:38:01.213Z,99446.84
2019-03-31T18:40:35.342Z,99444.89
2019-03-31T18:43:02.117Z,99443.06
2019-03-31T18:45:31.740Z,99445.37
2019-03-31T18:48:01.494Z,99450.66
2019-03-31T18:50:31.114Z,99447.41
2019-03-31T18:53:00.764Z,99450.63
2019-03-31T18:55:34.656Z,99445.09
2019-03-31T18:58:14.719Z,99452.86
2019-03-31T19:01:04.135Z,99450.95
2019-03-31T19:03:35.197Z,99456.78
2019-03-31T19:06:22.219Z,99455.14
2019-03-31T19:08:53.245Z,99454.05
2019-03-31T19:11:31.414Z,99455.66
2019-03-31T19:14:17.551Z,99455.97
2019-03-31T19:16:51.759Z,99455.94
2019-03-31T19:22:25.758Z,99459.95
2019-03-31T19:25:00.083Z,99469.30
2019-03-31T19:27:37.128Z,99473.93
2019-03-31T19:30:15.437Z,99480.73
2019-03-31T19:33:00.798Z,99473.48
2019-03-31T19:35:33.482Z,99476.08
2019-03-31T19:38:07.473Z,99482.22
2019-03-31T19:40:47.053Z,99482.91
2019-03-31T19:43:30.107Z,99490.41
2019-03-31T19:46:01.163Z,99481.34
2019-03-31T19:48:41.332Z,99482.05
2019-03-31T19:51:29.010Z,99483.78
2019-03-31T19:54:00.049Z,99484.00
2019-03-31T19:56:47.604Z,99492.03
2019-03-31T19:59:24.493Z,99484.35
2019-03-31T20:01:55.525Z,99492.26
2019-03-31T20:04:29.524Z,99487.34
2019-03-31T20:07:16.831Z,99491.20
2019-03-31T20:09:47.870Z,99493.44
2019-03-31T20:12:28.195Z,99496.42
2019-03-31T20:15:08.256Z,99498.71
2019-03-31T20:17:39.285Z,99498.16
2019-03-31T20:20:10.273Z,99498.77
2019-03-31T20:22:53.561Z,99492.95
2019-03-31T20:25:24.535Z,99491.08
2019-03-31T20:27:59.745Z,99496.92
2019-03-31T20:30:30.861Z,99505.85
2019-03-31T20:33:18.047Z,99512.91
2019-03-31T20:35:49.088Z,99515.52
2019-03-31T20:38:25.837Z,99509.68
2019-03-31T20:40:56.873Z,99511.14
2019-03-31T20:43:39.829Z,99507.92
2019-03-31T20:46:09.198Z,99511.84
2019-03-31T20:48:38.718Z,99509.76
2019-03-31T20:51:08.132Z,99506.48
2019-03-31T20:53:37.596Z,99505.09
2019-03-31T20:56:07.034Z,99508.92
2019-03-31T20:58:36.470Z,99502.80
2019-03-31T21:01:05.891Z,99508.05
2019-03-31T21:03:35.372Z,99505.27
2019-03-31T21:06:04.931Z,99509.69
2019-03-31T21:08:34.438Z,99502.67
2019-03-31T21:11:03.893Z,99500.33
2019-03-31T21:13:33.323Z,99496.92
2019-03-31T21:16:02.753Z,99501.48
2019-03-31T21:18:32.203Z,99498.83
2019-03-31T21:21:01.709Z,99501.84
2019-03-31T21:23:31.086Z,99508.22
2019-03-31T21:26:00.552Z,99500.95
2019-03-31T21:28:29.998Z,99495.96
2019-03-31T21:30:59.457Z,99497.33
2019-03-31T21:33:29.061Z,99493.07
2019-03-31T21:35:58.540Z,99490.34
2019-03-31T21:38:28.019Z,99495.04
2019-03-31T21:40:57.437Z,99493.78
2019-03-31T21:43:26.882Z,99494.67
2019-03-31T21:45:56.271Z,99496.33
2019-03-31T21:48:25.707Z,99495.52
2019-03-31T21:50:55.155Z,99497.30
2019-03-31T21:53:24.598Z,99498.48
2019-03-31T21:55:54.054Z,99499.94
2019-03-31T21:58:23.502Z,99494.33
2019-03-31T22:00:55.103Z,99499.50
2019-03-31T22:03:24.654Z,99494.73
2019-03-31T22:05:54.117Z,99495.38
2019-03-31T22:08:23.554Z,99494.90
2019-03-31T22:10:53.009Z,99492.34
2019-03-31T22:13:22.439Z,99496.11
2019-03-31T22:15:51.808Z,99496.14
2019-03-31T22:18:21.452Z,99500.24
2019-03-31T22:20:50.834Z,99502.05
2019-03-31T22:23:20.188Z,99497.85
2019-03-31T22:25:49.611Z,99499.30
2019-03-31T22:28:19.074Z,99498.95
2019-03-31T22:30:48.509Z,99495.04
2019-03-31T22:33:17.939Z,99496.05
2019-03-31T22:36:05.266Z,99490.63
2019-03-31T22:38:34.771Z,99489.89
2019-03-31T22:41:04.480Z,99492.48
2019-03-31T22:43:33.897Z,99490.87
2019-03-31T22:46:03.502Z,99485.11
2019-03-31T22:48:32.973Z,99486.96
2019-03-31T22:51:02.411Z,99491.27
2019-03-31T22:53:31.885Z,99496.28
2019-03-31T22:56:01.288Z,99493.83
2019-03-31T22:58:30.746Z,99489.34
2019-03-31T23:01:00.210Z,99487.63
2019-03-31T23:03:29.726Z,99484.17
2019-03-31T23:05:59.147Z,99478.62
2019-03-31T23:08:28.623Z,99482.08
2019-03-31T23:10:58.039Z,99480.36
2019-03-31T23:13:27.542Z,99480.61
2019-03-31T23:15:56.909Z,99485.28
2019-03-31T23:18:26.349Z,99482.16
2019-03-31T23:20:55.727Z,99479.89
2019-03-31T23:23:25.178Z,99483.50
2019-03-31T23:25:54.557Z,99478.62
2019-03-31T23:28:24.061Z,99487.64
2019-03-31T23:30:53.493Z,99487.70
2019-03-31T23:33:22.922Z,99482.34
2019-03-31T23:35:52.404Z,99481.76
2019-03-31T23:38:21.915Z,99475.97
2019-03-31T23:40:51.320Z,99474.66
2019-03-31T23:43:20.782Z,99472.66
2019-03-31T23:45:50.259Z,99476.59
2019-03-31T23:48:19.866Z,99480.09
2019-03-31T23:50:49.336Z,99473.83
2019-03-31T23:53:18.905Z,99482.19
2019-03-31T23:55:48.343Z,99475.57
2019-03-31T23:58:17.186Z,99475.13
